Nearby METAR Reports

 

KRDU - Raleigh/Durham, North Carolina, USA
Distance from station: NNW 20mi, 33km
Updated: Tue, 20-Oct-2020 11:51pm EDT
Mostly cloudy
Mostly cloudy
 Wind from calm
Wind: Calm
Temperature: 64°F , 18°C
Dew Point: 64°F , 18°C
Humidity: 100%
Barometer: 30.23 inHg , 1023.7 hPa
Clouds: Mostly cloudy
Visibility: 10 miles , 16 km
Cloud details: Partly cloudy 3000 ft
Mostly cloudy 4000 ft
Mostly cloudy 5500 ft
Mostly cloudy 25000 ft
2020/10/21 03:51 KRDU 210351Z 00000KT 10SM SCT030 BKN040 BKN055 BKN250 18/18 A3023 RMK AO2 SLP233 T01830178
KJNX - Smithfield Johns, North Carolina, USA
Distance from station: ESE 17mi, 28km
Updated: Wed, 21-Oct-2020 12:15am EDT
Clear
Clear
 Wind from calm
Wind: Calm
Temperature: 66°F , 19°C
Dew Point: 64°F , 18°C
Humidity: 94%
Barometer: 30.22 inHg , 1023.4 hPa
Clouds: Clear
Visibility: 10 miles , 16 km
2020/10/21 04:15 KJNX 210415Z AUTO 00000KT 10SM CLR 19/18 A3022 RMK AO2
 
KLHZ - Louisburg/Frankl, North Carolina, USA
Distance from station: NE 33mi, 54km
Updated: Wed, 21-Oct-2020 12:15am EDT
Mostly cloudy
Mostly cloudy
 Wind from calm
Wind: Calm
Temperature: 63°F , 17°C
Dew Point: 63°F , 17°C
Humidity: 100%
Barometer: 30.25 inHg , 1024.4 hPa
Clouds: Mostly cloudy
Visibility: 7 miles , 11 km
Cloud details: Mostly cloudy 2800 ft
2020/10/21 04:15 KLHZ 210415Z AUTO 00000KT 7SM BKN028 17/17 A3025 RMK AO2
KPOB - Pope Afb, North Carolina, USA
Distance from station: SSW 37mi, 59km
Updated: Tue, 20-Oct-2020 11:56pm EDT
Clear
Clear
 Wind from calm
Wind: Calm
Temperature: 64°F , 18°C
Dew Point: 64°F , 18°C
Humidity: 100%
Barometer: 30.21 inHg , 1023 hPa
Clouds: Clear
Visibility: 10 miles , 16 km
2020/10/21 03:56 KPOB 210356Z AUTO 00000KT 10SM CLR 18/18 A3021 RMK AO2 SLP232 T01820180 $
 
KSCR - Siler City, North Carolina, USA
Distance from station: W 47mi, 75km
Updated: Wed, 21-Oct-2020 12:15am EDT
Clear
Clear
 Wind from calm
Wind: Calm
Temperature: 61°F , 16°C
Dew Point: 59°F , 15°C
Humidity: 94%
Barometer: 30.24 inHg , 1024 hPa
Clouds: Clear
Visibility: 10 miles , 16 km
2020/10/21 04:15 KSCR 210415Z AUTO 00000KT 10SM CLR 16/15 A3024 RMK AO2 T01550154
KTDF - Roxboro Person, North Carolina, USA
Distance from station: NNW 49mi, 79km
Updated: Wed, 21-Oct-2020 12:15am EDT
Overcast
Overcast
 Wind from calm
Wind: Calm
Temperature: 61°F , 16°C
Dew Point: 61°F , 16°C
Humidity: 100%
Barometer: 30.26 inHg , 1024.7 hPa
Clouds: Overcast
Visibility: 10 miles , 16 km
Cloud details: Overcast 2800 ft
2020/10/21 04:15 KTDF 210415Z AUTO 00000KT 10SM OVC028 16/16 A3026 RMK AO2
 
KSOP - Southern Pines, North Carolina, USA
Distance from station: SW 50mi, 80km
Updated: Wed, 21-Oct-2020 12:10am EDT
Mostly cloudy
Mostly cloudy
 Wind from calm
Wind: Calm
Temperature: 64°F , 18°C
Dew Point: 63°F , 17°C
Humidity: 94%
Barometer: 30.23 inHg , 1023.7 hPa
Clouds: Mostly cloudy
Visibility: 8 miles , 13 km
Cloud details: Mostly cloudy 1900 ft
2020/10/21 04:10 KSOP 210410Z AUTO 00000KT 8SM BKN019 18/17 A3023 RMK AO2 PNO $
KHNZ - Henderson/Oxford, North Carolina, USA
Distance from station: N 52mi, 84km
Updated: Wed, 21-Oct-2020 12:15am EDT
Mostly cloudy
Mostly cloudy
 Wind from calm
Wind: Calm
Temperature: 63°F , 17°C
Dew Point: 63°F , 17°C
Humidity: 100%
Barometer: 30.23 inHg , 1023.7 hPa
Clouds: Mostly cloudy
Visibility: 10 miles , 16 km
Cloud details: Mostly cloudy 3100 ft
Mostly cloudy 3600 ft
2020/10/21 04:15 KHNZ 210415Z AUTO 00000KT 10SM BKN031 BKN036 17/17 A3023 RMK AO2 T01680166
 
KBUY - Burlington, North Carolina, USA
Distance from station: NW 54mi, 86km
Updated: Tue, 20-Oct-2020 11:54pm EDT
Mostly cloudy
Mostly cloudy
 Wind from calm
Wind: Calm
Temperature: 63°F , 17°C
Dew Point: 61°F , 16°C
Humidity: 94%
Barometer: 30.22 inHg , 1023.4 hPa
Clouds: Mostly cloudy
Visibility: 9 miles , 14 km
Cloud details: Few Clouds 3400 ft
Mostly cloudy 4300 ft
Mostly cloudy 5000 ft
2020/10/21 03:54 KBUY 210354Z AUTO 00000KT 9SM FEW034 BKN043 BKN050 17/16 A3022 RMK AO2 SLP230 T01720156
KTNB - Boone Watauga Ct, North Carolina, USA
Distance from station: SE 2mi, 3km
Updated: Wed, 21-Oct-2020 12:15am EDT
Mist
Mist
 Wind from calm
Wind: Calm
Temperature: 45°F , 7°C
Dew Point: 45°F , 7°C
Humidity: 100%
Barometer: 30.32 inHg , 1026.8 hPa
Summary: Mist
Visibility: 5 miles , 8 km
2020/10/21 04:15 KTNB 210415Z AUTO 00000KT 5SM BR 07/07 A3032 RMK AO2 LTG DSNT NW T00730073
 
KGEV - Jefferson, North Carolina, USA
Distance from station: NE 21mi, 33km
Updated: Wed, 21-Oct-2020 12:15am EDT
Clear
Clear
 Wind from calm
Wind: Calm
Temperature: 55°F , 13°C
Dew Point: 54°F , 12°C
Humidity: 94%
Barometer: 30.29 inHg , 1025.7 hPa
Clouds: Clear
Visibility: 10 miles , 16 km
2020/10/21 04:15 KGEV 210415Z AUTO 00000KT 10SM CLR 13/12 A3029 RMK AO2 T01250116
KFQD - Rutherfordton, North Carolina, USA
Distance from station: SSW 57mi, 92km
Updated: Wed, 21-Oct-2020 12:15am EDT
Partly cloudy
Partly cloudy
 Wind from calm
Wind: Calm
Temperature: 54°F , 12°C
Dew Point: 54°F , 12°C
Humidity: 100%
Barometer: 30.26 inHg , 1024.7 hPa
Clouds: Partly cloudy
Visibility: 7 miles , 11 km
Cloud details: Partly cloudy 2900 ft
2020/10/21 04:15 KFQD 210415Z AUTO 00000KT 7SM SCT029 12/12 A3026 RMK AO2
 
KAVL - Asheville, North Carolina, USA
Distance from station: SW 72mi, 117km
Updated: Tue, 20-Oct-2020 11:54pm EDT
Clear
Clear
 Wind from calm
Wind: Calm
Temperature: 54°F , 12°C
Dew Point: 54°F , 12°C
Humidity: 100%
Barometer: 30.28 inHg , 1025.4 hPa
Clouds: Clear
Visibility: 10 miles , 16 km
2020/10/21 03:54 KAVL 210354Z AUTO 00000KT 10SM CLR 12/12 A3028 RMK AO2 SLP241 T01220117